Joppa, Texas
Current Conditions -  °F | °C
As of 11:53 PM on Friday 28 Nov 2014 (Local Time) from KBMQ Reporting Station
Clear Clear  
Wind Chill: 51°   Ceiling: Unl
Heat Index: 51°   Visibility: 10mi
Dew Point: 44°   Wind: 5mph
Humidity: 77%   Direction: 190°S
Pressure: 30.09"   Gusts: NA
Location:  30.7452°N, 98.043°W
Report Text: KBMQ 290553Z AUTO 19004KT 10SM CLR 11/07 A3009 RMK AO2 SLP182 T01060067 10172 20100 402110044 57007
Loading
Personal Weather Stations






























Interactive Weather Map New forecast layout! Learn more

10-Day Weather Forecast

Advertisements
Track Severe Weather on mobile